sensor_id;sensor_type;location;lat;lon;timestamp;P1;durP1;ratioP1;P2;durP2;ratioP2
7029;SDS011;3556;53.500;10.176;2023-04-01T00:00:51;9.97;;;6.47;;
7029;SDS011;3556;53.500;10.176;2023-04-01T00:03:18;6.63;;;5.80;;
7029;SDS011;3556;53.500;10.176;2023-04-01T00:05:45;6.33;;;5.80;;
7029;SDS011;3556;53.500;10.176;2023-04-01T00:08:11;9.67;;;6.53;;
7029;SDS011;3556;53.500;10.176;2023-04-01T00:10:37;9.53;;;6.27;;
7029;SDS011;3556;53.500;10.176;2023-04-01T00:13:03;6.77;;;6.07;;
7029;SDS011;3556;53.500;10.176;2023-04-01T00:15:29;6.67;;;6.00;;
7029;SDS011;3556;53.500;10.176;2023-04-01T00:17:55;9.70;;;5.90;;
7029;SDS011;3556;53.500;10.176;2023-04-01T00:20:21;7.90;;;5.50;;
7029;SDS011;3556;53.500;10.176;2023-04-01T00:22:47;7.10;;;5.60;;
7029;SDS011;3556;53.500;10.176;2023-04-01T00:25:13;6.70;;;6.10;;
7029;SDS011;3556;53.500;10.176;2023-04-01T00:27:39;6.63;;;5.30;;
7029;SDS011;3556;53.500;10.176;2023-04-01T00:30:05;9.80;;;6.00;;
7029;SDS011;3556;53.500;10.176;2023-04-01T00:32:32;15.53;;;6.40;;
7029;SDS011;3556;53.500;10.176;2023-04-01T00:34:58;7.70;;;5.80;;
7029;SDS011;3556;53.500;10.176;2023-04-01T00:37:24;10.40;;;6.00;;
7029;SDS011;3556;53.500;10.176;2023-04-01T00:39:51;12.90;;;6.00;;
7029;SDS011;3556;53.500;10.176;2023-04-01T00:42:16;6.73;;;5.90;;
7029;SDS011;3556;53.500;10.176;2023-04-01T00:44:44;11.90;;;5.27;;
7029;SDS011;3556;53.500;10.176;2023-04-01T00:47:12;7.07;;;4.90;;
7029;SDS011;3556;53.500;10.176;2023-04-01T00:49:39;5.73;;;5.30;;
7029;SDS011;3556;53.500;10.176;2023-04-01T00:52:07;6.70;;;6.00;;
7029;SDS011;3556;53.500;10.176;2023-04-01T00:54:35;11.63;;;5.80;;
7029;SDS011;3556;53.500;10.176;2023-04-01T00:57:04;8.20;;;5.73;;
7029;SDS011;3556;53.500;10.176;2023-04-01T00:59:34;5.70;;;5.20;;
7029;SDS011;3556;53.500;10.176;2023-04-01T01:02:03;8.50;;;5.80;;
7029;SDS011;3556;53.500;10.176;2023-04-01T01:04:32;10.00;;;6.63;;
7029;SDS011;3556;53.500;10.176;2023-04-01T01:07:20;9.27;;;5.80;;
7029;SDS011;3556;53.500;10.176;2023-04-01T01:12:49;12.50;;;5.67;;
7029;SDS011;3556;53.500;10.176;2023-04-01T01:37:44;9.80;;;5.33;;
7029;SDS011;3556;53.500;10.176;2023-04-01T01:40:12;5.50;;;5.00;;
7029;SDS011;3556;53.500;10.176;2023-04-01T01:42:40;8.60;;;5.30;;
7029;SDS011;3556;53.500;10.176;2023-04-01T01:45:10;5.33;;;4.83;;
7029;SDS011;3556;53.500;10.176;2023-04-01T01:47:39;8.70;;;5.57;;
7029;SDS011;3556;53.500;10.176;2023-04-01T01:50:06;6.97;;;5.03;;
7029;SDS011;3556;53.500;10.176;2023-04-01T01:52:33;6.23;;;5.20;;
7029;SDS011;3556;53.500;10.176;2023-04-01T01:54:58;4.87;;;4.50;;
7029;SDS011;3556;53.500;10.176;2023-04-01T01:57:28;6.27;;;4.80;;
7029;SDS011;3556;53.500;10.176;2023-04-01T01:59:59;13.37;;;5.20;;
7029;SDS011;3556;53.500;10.176;2023-04-01T02:02:29;8.97;;;5.07;;
7029;SDS011;3556;53.500;10.176;2023-04-01T02:04:57;9.47;;;4.93;;
7029;SDS011;3556;53.500;10.176;2023-04-01T02:07:24;5.47;;;5.00;;
7029;SDS011;3556;53.500;10.176;2023-04-01T02:09:54;8.63;;;5.27;;
7029;SDS011;3556;53.500;10.176;2023-04-01T02:12:20;7.17;;;4.43;;
7029;SDS011;3556;53.500;10.176;2023-04-01T02:17:21;11.70;;;5.37;;
7029;SDS011;3556;53.500;10.176;2023-04-01T02:20:08;5.53;;;4.40;;
7029;SDS011;3556;53.500;10.176;2023-04-01T02:22:39;8.30;;;4.43;;
7029;SDS011;3556;53.500;10.176;2023-04-01T02:25:09;5.73;;;4.40;;
7029;SDS011;3556;53.500;10.176;2023-04-01T02:27:38;8.90;;;5.30;;
7029;SDS011;3556;53.500;10.176;2023-04-01T02:30:07;8.57;;;5.10;;
7029;SDS011;3556;53.500;10.176;2023-04-01T02:32:33;5.67;;;5.17;;
7029;SDS011;3556;53.500;10.176;2023-04-01T02:35:03;8.10;;;5.10;;
7029;SDS011;3556;53.500;10.176;2023-04-01T02:37:33;9.07;;;5.00;;
7029;SDS011;3556;53.500;10.176;2023-04-01T02:40:03;5.10;;;4.63;;
7029;SDS011;3556;53.500;10.176;2023-04-01T02:42:31;4.57;;;4.27;;
7029;SDS011;3556;53.500;10.176;2023-04-01T02:44:57;8.23;;;4.73;;
7029;SDS011;3556;53.500;10.176;2023-04-01T02:47:22;10.70;;;5.30;;
7029;SDS011;3556;53.500;10.176;2023-04-01T02:49:48;5.80;;;4.90;;
7029;SDS011;3556;53.500;10.176;2023-04-01T02:52:14;5.63;;;4.70;;
7029;SDS011;3556;53.500;10.176;2023-04-01T02:54:39;9.87;;;5.30;;
7029;SDS011;3556;53.500;10.176;2023-04-01T02:57:05;6.93;;;4.90;;
7029;SDS011;3556;53.500;10.176;2023-04-01T02:59:31;12.80;;;5.27;;
7029;SDS011;3556;53.500;10.176;2023-04-01T03:01:56;10.07;;;5.10;;
7029;SDS011;3556;53.500;10.176;2023-04-01T03:04:22;4.90;;;4.60;;
7029;SDS011;3556;53.500;10.176;2023-04-01T03:06:48;10.70;;;5.17;;
7029;SDS011;3556;53.500;10.176;2023-04-01T03:09:13;6.57;;;4.93;;
7029;SDS011;3556;53.500;10.176;2023-04-01T03:11:39;9.93;;;4.90;;
7029;SDS011;3556;53.500;10.176;2023-04-01T03:14:05;4.73;;;4.53;;
7029;SDS011;3556;53.500;10.176;2023-04-01T03:16:32;8.73;;;5.30;;
7029;SDS011;3556;53.500;10.176;2023-04-01T03:18:57;9.13;;;4.87;;
7029;SDS011;3556;53.500;10.176;2023-04-01T03:21:25;6.53;;;5.93;;
7029;SDS011;3556;53.500;10.176;2023-04-01T03:23:51;8.50;;;6.10;;
7029;SDS011;3556;53.500;10.176;2023-04-01T03:26:17;11.30;;;5.93;;
7029;SDS011;3556;53.500;10.176;2023-04-01T03:28:43;8.07;;;5.37;;
7029;SDS011;3556;53.500;10.176;2023-04-01T03:31:09;9.63;;;6.00;;
7029;SDS011;3556;53.500;10.176;2023-04-01T03:33:34;6.33;;;5.83;;
7029;SDS011;3556;53.500;10.176;2023-04-01T03:36:00;6.03;;;5.47;;
7029;SDS011;3556;53.500;10.176;2023-04-01T03:38:26;11.40;;;6.30;;
7029;SDS011;3556;53.500;10.176;2023-04-01T03:40:51;5.80;;;5.40;;
7029;SDS011;3556;53.500;10.176;2023-04-01T03:43:17;10.80;;;5.50;;
7029;SDS011;3556;53.500;10.176;2023-04-01T03:45:46;10.00;;;6.43;;
7029;SDS011;3556;53.500;10.176;2023-04-01T03:48:14;10.10;;;6.70;;
7029;SDS011;3556;53.500;10.176;2023-04-01T03:50:40;8.17;;;6.30;;
7029;SDS011;3556;53.500;10.176;2023-04-01T03:53:06;9.27;;;6.90;;
7029;SDS011;3556;53.500;10.176;2023-04-01T03:55:32;13.87;;;6.80;;
7029;SDS011;3556;53.500;10.176;2023-04-01T03:57:57;11.30;;;7.20;;
7029;SDS011;3556;53.500;10.176;2023-04-01T04:00:23;8.60;;;7.33;;
7029;SDS011;3556;53.500;10.176;2023-04-01T04:02:49;7.60;;;7.00;;
7029;SDS011;3556;53.500;10.176;2023-04-01T04:05:15;10.70;;;7.33;;
7029;SDS011;3556;53.500;10.176;2023-04-01T04:07:40;8.43;;;7.60;;
7029;SDS011;3556;53.500;10.176;2023-04-01T04:10:06;14.23;;;7.93;;
7029;SDS011;3556;53.500;10.176;2023-04-01T04:12:32;12.10;;;7.53;;
7029;SDS011;3556;53.500;10.176;2023-04-01T04:14:58;12.50;;;7.30;;
7029;SDS011;3556;53.500;10.176;2023-04-01T04:17:23;12.10;;;7.23;;
7029;SDS011;3556;53.500;10.176;2023-04-01T04:19:49;10.23;;;6.97;;
7029;SDS011;3556;53.500;10.176;2023-04-01T04:22:14;10.27;;;7.30;;
7029;SDS011;3556;53.500;10.176;2023-04-01T04:24:40;7.80;;;7.00;;
7029;SDS011;3556;53.500;10.176;2023-04-01T04:27:05;10.93;;;6.60;;
7029;SDS011;3556;53.500;10.176;2023-04-01T04:29:31;10.23;;;7.67;;
7029;SDS011;3556;53.500;10.176;2023-04-01T04:31:57;12.70;;;8.23;;
7029;SDS011;3556;53.500;10.176;2023-04-01T04:34:22;7.80;;;7.00;;
7029;SDS011;3556;53.500;10.176;2023-04-01T04:36:48;8.17;;;7.30;;
7029;SDS011;3556;53.500;10.176;2023-04-01T04:39:14;10.80;;;6.57;;
7029;SDS011;3556;53.500;10.176;2023-04-01T04:41:40;6.80;;;6.27;;
7029;SDS011;3556;53.500;10.176;2023-04-01T04:44:06;9.20;;;5.97;;
7029;SDS011;3556;53.500;10.176;2023-04-01T04:46:31;25.53;;;7.07;;
7029;SDS011;3556;53.500;10.176;2023-04-01T04:48:57;14.20;;;7.67;;
7029;SDS011;3556;53.500;10.176;2023-04-01T04:51:23;8.30;;;6.60;;
7029;SDS011;3556;53.500;10.176;2023-04-01T04:53:48;6.80;;;6.30;;
7029;SDS011;3556;53.500;10.176;2023-04-01T04:56:18;8.17;;;7.37;;
7029;SDS011;3556;53.500;10.176;2023-04-01T04:58:45;7.90;;;7.10;;
7029;SDS011;3556;53.500;10.176;2023-04-01T05:01:12;9.10;;;6.33;;
7029;SDS011;3556;53.500;10.176;2023-04-01T05:03:40;7.90;;;7.30;;
7029;SDS011;3556;53.500;10.176;2023-04-01T05:06:06;7.17;;;6.50;;
7029;SDS011;3556;53.500;10.176;2023-04-01T05:08:34;7.77;;;7.17;;
7029;SDS011;3556;53.500;10.176;2023-04-01T05:11:00;8.37;;;6.60;;
7029;SDS011;3556;53.500;10.176;2023-04-01T05:13:27;6.47;;;5.83;;
7029;SDS011;3556;53.500;10.176;2023-04-01T05:15:53;6.63;;;6.07;;
7029;SDS011;3556;53.500;10.176;2023-04-01T05:18:19;8.00;;;6.87;;
7029;SDS011;3556;53.500;10.176;2023-04-01T05:20:51;7.07;;;6.57;;
7029;SDS011;3556;53.500;10.176;2023-04-01T05:23:19;9.57;;;7.13;;
7029;SDS011;3556;53.500;10.176;2023-04-01T05:25:49;6.80;;;6.40;;
7029;SDS011;3556;53.500;10.176;2023-04-01T05:28:15;9.63;;;6.40;;
7029;SDS011;3556;53.500;10.176;2023-04-01T05:30:41;7.67;;;6.63;;
7029;SDS011;3556;53.500;10.176;2023-04-01T05:33:08;7.20;;;6.60;;
7029;SDS011;3556;53.500;10.176;2023-04-01T05:35:35;7.40;;;6.80;;
7029;SDS011;3556;53.500;10.176;2023-04-01T05:38:00;6.60;;;6.00;;
7029;SDS011;3556;53.500;10.176;2023-04-01T05:40:27;6.67;;;6.07;;
7029;SDS011;3556;53.500;10.176;2023-04-01T05:42:53;6.37;;;5.77;;
7029;SDS011;3556;53.500;10.176;2023-04-01T05:45:19;6.67;;;6.17;;
7029;SDS011;3556;53.500;10.176;2023-04-01T05:47:44;7.47;;;6.90;;
7029;SDS011;3556;53.500;10.176;2023-04-01T05:50:10;7.87;;;7.17;;
7029;SDS011;3556;53.500;10.176;2023-04-01T05:52:36;8.77;;;5.90;;
7029;SDS011;3556;53.500;10.176;2023-04-01T05:55:03;4.03;;;3.73;;
7029;SDS011;3556;53.500;10.176;2023-04-01T05:57:29;2.70;;;2.60;;
7029;SDS011;3556;53.500;10.176;2023-04-01T05:59:56;2.13;;;2.03;;
7029;SDS011;3556;53.500;10.176;2023-04-01T06:02:22;1.40;;;1.30;;
7029;SDS011;3556;53.500;10.176;2023-04-01T06:04:47;0.80;;;0.80;;
7029;SDS011;3556;53.500;10.176;2023-04-01T06:07:14;1.83;;;0.80;;
7029;SDS011;3556;53.500;10.176;2023-04-01T06:09:41;0.77;;;0.77;;
7029;SDS011;3556;53.500;10.176;2023-04-01T06:17:18;0.90;;;0.90;;
7029;SDS011;3556;53.500;10.176;2023-04-01T06:25:36;1.20;;;1.20;;
7029;SDS011;3556;53.500;10.176;2023-04-01T06:31:16;1.10;;;1.10;;
7029;SDS011;3556;53.500;10.176;2023-04-01T06:50:55;1.00;;;1.00;;
7029;SDS011;3556;53.500;10.176;2023-04-01T06:53:42;1.17;;;1.17;;
7029;SDS011;3556;53.500;10.176;2023-04-01T06:56:21;1.20;;;1.20;;
7029;SDS011;3556;53.500;10.176;2023-04-01T06:58:56;1.10;;;1.10;;
7029;SDS011;3556;53.500;10.176;2023-04-01T07:01:34;1.00;;;1.00;;
7029;SDS011;3556;53.500;10.176;2023-04-01T07:06:35;2.70;;;1.30;;
7029;SDS011;3556;53.500;10.176;2023-04-01T07:09:15;1.20;;;1.10;;
7029;SDS011;3556;53.500;10.176;2023-04-01T07:11:46;1.00;;;1.00;;
7029;SDS011;3556;53.500;10.176;2023-04-01T07:14:13;1.10;;;1.10;;
7029;SDS011;3556;53.500;10.176;2023-04-01T07:17:35;1.03;;;1.03;;
7029;SDS011;3556;53.500;10.176;2023-04-01T07:19:50;1.00;;;1.00;;
7029;SDS011;3556;53.500;10.176;2023-04-01T07:22:29;1.20;;;1.20;;
7029;SDS011;3556;53.500;10.176;2023-04-01T07:27:53;0.70;;;0.70;;
7029;SDS011;3556;53.500;10.176;2023-04-01T07:30:25;0.87;;;0.87;;
7029;SDS011;3556;53.500;10.176;2023-04-01T07:33:13;1.03;;;0.80;;
7029;SDS011;3556;53.500;10.176;2023-04-01T07:36:03;0.77;;;0.77;;
7029;SDS011;3556;53.500;10.176;2023-04-01T07:41:41;0.80;;;0.80;;
7029;SDS011;3556;53.500;10.176;2023-04-01T07:54:59;0.80;;;0.80;;
7029;SDS011;3556;53.500;10.176;2023-04-01T07:57:33;0.70;;;0.70;;
7029;SDS011;3556;53.500;10.176;2023-04-01T08:05:14;0.67;;;0.67;;
7029;SDS011;3556;53.500;10.176;2023-04-01T08:07:57;0.60;;;0.60;;
7029;SDS011;3556;53.500;10.176;2023-04-01T08:18:47;1.00;;;0.67;;
7029;SDS011;3556;53.500;10.176;2023-04-01T08:21:21;0.60;;;0.60;;
7029;SDS011;3556;53.500;10.176;2023-04-01T08:23:54;0.80;;;0.80;;
7029;SDS011;3556;53.500;10.176;2023-04-01T08:26:37;0.80;;;0.80;;
7029;SDS011;3556;53.500;10.176;2023-04-01T08:34:21;2.93;;;0.80;;
7029;SDS011;3556;53.500;10.176;2023-04-01T08:37:19;0.70;;;0.70;;
7029;SDS011;3556;53.500;10.176;2023-04-01T08:40:04;0.63;;;0.63;;
7029;SDS011;3556;53.500;10.176;2023-04-01T08:48:36;0.70;;;0.70;;
7029;SDS011;3556;53.500;10.176;2023-04-01T08:51:16;0.80;;;0.80;;
7029;SDS011;3556;53.500;10.176;2023-04-01T08:54:07;0.60;;;0.60;;
7029;SDS011;3556;53.500;10.176;2023-04-01T08:59:31;0.83;;;0.83;;
7029;SDS011;3556;53.500;10.176;2023-04-01T09:12:43;1.93;;;0.70;;
7029;SDS011;3556;53.500;10.176;2023-04-01T09:15:16;0.80;;;0.80;;
7029;SDS011;3556;53.500;10.176;2023-04-01T09:20:46;0.93;;;0.93;;
7029;SDS011;3556;53.500;10.176;2023-04-01T09:23:46;0.93;;;0.93;;
7029;SDS011;3556;53.500;10.176;2023-04-01T09:26:17;0.80;;;0.80;;
7029;SDS011;3556;53.500;10.176;2023-04-01T09:45:57;0.77;;;0.77;;
7029;SDS011;3556;53.500;10.176;2023-04-01T09:56:32;3.70;;;0.70;;
7029;SDS011;3556;53.500;10.176;2023-04-01T09:59:15;1.43;;;0.90;;
7029;SDS011;3556;53.500;10.176;2023-04-01T10:07:49;0.60;;;0.60;;
7029;SDS011;3556;53.500;10.176;2023-04-01T10:16:40;0.70;;;0.70;;
7029;SDS011;3556;53.500;10.176;2023-04-01T10:19:15;0.80;;;0.80;;
7029;SDS011;3556;53.500;10.176;2023-04-01T10:25:04;0.60;;;0.60;;
7029;SDS011;3556;53.500;10.176;2023-04-01T10:30:30;0.70;;;0.70;;
7029;SDS011;3556;53.500;10.176;2023-04-01T10:46:53;0.67;;;0.67;;
7029;SDS011;3556;53.500;10.176;2023-04-01T10:59:00;0.77;;;0.77;;
7029;SDS011;3556;53.500;10.176;2023-04-01T11:26:37;0.87;;;0.87;;
7029;SDS011;3556;53.500;10.176;2023-04-01T11:41:12;5.70;;;1.40;;
7029;SDS011;3556;53.500;10.176;2023-04-01T11:57:46;1.50;;;1.50;;
7029;SDS011;3556;53.500;10.176;2023-04-01T12:00:44;1.50;;;1.50;;
7029;SDS011;3556;53.500;10.176;2023-04-01T12:05:54;2.27;;;2.17;;
7029;SDS011;3556;53.500;10.176;2023-04-01T12:11:33;2.60;;;2.50;;
7029;SDS011;3556;53.500;10.176;2023-04-01T12:22:12;2.50;;;2.40;;
7029;SDS011;3556;53.500;10.176;2023-04-01T12:27:29;2.67;;;2.47;;
7029;SDS011;3556;53.500;10.176;2023-04-01T12:49:47;2.93;;;2.83;;
7029;SDS011;3556;53.500;10.176;2023-04-01T13:17:51;5.17;;;2.60;;
7029;SDS011;3556;53.500;10.176;2023-04-01T13:28:34;3.17;;;2.97;;
7029;SDS011;3556;53.500;10.176;2023-04-01T13:31:31;3.00;;;2.87;;
7029;SDS011;3556;53.500;10.176;2023-04-01T13:50:27;2.80;;;2.63;;
7029;SDS011;3556;53.500;10.176;2023-04-01T13:55:48;2.33;;;2.23;;
7029;SDS011;3556;53.500;10.176;2023-04-01T14:06:43;4.70;;;2.90;;
7029;SDS011;3556;53.500;10.176;2023-04-01T14:12:04;3.27;;;3.10;;
7029;SDS011;3556;53.500;10.176;2023-04-01T14:34:12;3.80;;;3.60;;
7029;SDS011;3556;53.500;10.176;2023-04-01T14:45:27;3.63;;;3.40;;
7029;SDS011;3556;53.500;10.176;2023-04-01T14:50:49;4.70;;;4.07;;
7029;SDS011;3556;53.500;10.176;2023-04-01T14:55:50;5.93;;;4.10;;
7029;SDS011;3556;53.500;10.176;2023-04-01T14:58:18;4.50;;;4.10;;
7029;SDS011;3556;53.500;10.176;2023-04-01T15:01:06;6.80;;;4.07;;
7029;SDS011;3556;53.500;10.176;2023-04-01T15:04:37;4.10;;;3.90;;
7029;SDS011;3556;53.500;10.176;2023-04-01T15:09:43;3.10;;;3.00;;
7029;SDS011;3556;53.500;10.176;2023-04-01T15:12:57;3.57;;;3.27;;
7029;SDS011;3556;53.500;10.176;2023-04-01T15:32:16;7.10;;;4.17;;
7029;SDS011;3556;53.500;10.176;2023-04-01T15:34:59;4.20;;;3.90;;
7029;SDS011;3556;53.500;10.176;2023-04-01T15:45:35;8.43;;;4.53;;
7029;SDS011;3556;53.500;10.176;2023-04-01T15:48:17;5.27;;;4.43;;
7029;SDS011;3556;53.500;10.176;2023-04-01T15:51:36;7.57;;;4.43;;
7029;SDS011;3556;53.500;10.176;2023-04-01T15:56:42;7.70;;;4.47;;
7029;SDS011;3556;53.500;10.176;2023-04-01T15:59:28;6.70;;;4.50;;
7029;SDS011;3556;53.500;10.176;2023-04-01T16:02:21;4.60;;;4.30;;
7029;SDS011;3556;53.500;10.176;2023-04-01T16:05:03;5.13;;;4.57;;
7029;SDS011;3556;53.500;10.176;2023-04-01T16:10:43;4.30;;;4.00;;
7029;SDS011;3556;53.500;10.176;2023-04-01T16:16:28;10.83;;;5.50;;
7029;SDS011;3556;53.500;10.176;2023-04-01T16:19:19;9.90;;;5.47;;
7029;SDS011;3556;53.500;10.176;2023-04-01T16:28:03;16.30;;;5.60;;
7029;SDS011;3556;53.500;10.176;2023-04-01T16:38:52;5.47;;;5.10;;
7029;SDS011;3556;53.500;10.176;2023-04-01T16:41:47;6.27;;;5.47;;
7029;SDS011;3556;53.500;10.176;2023-04-01T16:44:32;7.80;;;5.60;;
7029;SDS011;3556;53.500;10.176;2023-04-01T16:47:30;7.03;;;5.40;;
7029;SDS011;3556;53.500;10.176;2023-04-01T16:50:22;8.33;;;4.57;;
7029;SDS011;3556;53.500;10.176;2023-04-01T16:55:24;9.63;;;5.23;;
7029;SDS011;3556;53.500;10.176;2023-04-01T16:58:35;11.77;;;5.60;;
7029;SDS011;3556;53.500;10.176;2023-04-01T17:01:16;10.57;;;6.10;;
7029;SDS011;3556;53.500;10.176;2023-04-01T17:03:50;9.00;;;6.10;;
7029;SDS011;3556;53.500;10.176;2023-04-01T17:09:06;7.67;;;5.90;;
7029;SDS011;3556;53.500;10.176;2023-04-01T17:14:25;11.27;;;6.43;;
7029;SDS011;3556;53.500;10.176;2023-04-01T17:17:10;9.67;;;6.30;;
7029;SDS011;3556;53.500;10.176;2023-04-01T17:22:54;8.37;;;5.70;;
7029;SDS011;3556;53.500;10.176;2023-04-01T17:42:09;8.60;;;5.50;;
7029;SDS011;3556;53.500;10.176;2023-04-01T17:47:19;4.73;;;4.33;;
7029;SDS011;3556;53.500;10.176;2023-04-01T17:50:13;4.47;;;4.13;;
7029;SDS011;3556;53.500;10.176;2023-04-01T17:56:01;5.70;;;4.13;;
7029;SDS011;3556;53.500;10.176;2023-04-01T17:58:20;9.47;;;4.47;;
7029;SDS011;3556;53.500;10.176;2023-04-01T18:00:59;6.43;;;3.77;;
7029;SDS011;3556;53.500;10.176;2023-04-01T18:18:05;3.80;;;3.50;;
7029;SDS011;3556;53.500;10.176;2023-04-01T18:25:55;4.57;;;4.30;;
7029;SDS011;3556;53.500;10.176;2023-04-01T18:28:38;5.93;;;4.60;;
7029;SDS011;3556;53.500;10.176;2023-04-01T18:31:24;7.07;;;3.97;;
7029;SDS011;3556;53.500;10.176;2023-04-01T18:34:02;4.17;;;3.70;;
7029;SDS011;3556;53.500;10.176;2023-04-01T18:37:00;4.93;;;4.57;;
7029;SDS011;3556;53.500;10.176;2023-04-01T18:39:48;4.10;;;3.90;;
7029;SDS011;3556;53.500;10.176;2023-04-01T18:56:26;4.47;;;3.83;;
7029;SDS011;3556;53.500;10.176;2023-04-01T18:59:04;4.70;;;4.20;;
7029;SDS011;3556;53.500;10.176;2023-04-01T19:01:43;4.80;;;4.20;;
7029;SDS011;3556;53.500;10.176;2023-04-01T19:04:39;4.03;;;3.80;;
7029;SDS011;3556;53.500;10.176;2023-04-01T19:10:12;5.43;;;3.40;;
7029;SDS011;3556;53.500;10.176;2023-04-01T19:35:06;6.10;;;3.77;;
7029;SDS011;3556;53.500;10.176;2023-04-01T19:37:59;2.97;;;2.77;;
7029;SDS011;3556;53.500;10.176;2023-04-01T19:43:28;3.33;;;2.93;;
7029;SDS011;3556;53.500;10.176;2023-04-01T19:46:05;3.40;;;3.10;;
7029;SDS011;3556;53.500;10.176;2023-04-01T19:56:29;2.40;;;2.30;;
7029;SDS011;3556;53.500;10.176;2023-04-01T20:01:35;5.23;;;3.33;;
7029;SDS011;3556;53.500;10.176;2023-04-01T20:04:25;4.70;;;3.57;;
7029;SDS011;3556;53.500;10.176;2023-04-01T20:12:33;3.33;;;3.03;;
7029;SDS011;3556;53.500;10.176;2023-04-01T20:15:06;4.10;;;2.73;;
7029;SDS011;3556;53.500;10.176;2023-04-01T20:18:01;4.43;;;3.63;;
7029;SDS011;3556;53.500;10.176;2023-04-01T20:20:30;4.53;;;2.77;;
7029;SDS011;3556;53.500;10.176;2023-04-01T20:25:54;7.47;;;3.70;;
7029;SDS011;3556;53.500;10.176;2023-04-01T20:29:04;10.73;;;3.00;;
7029;SDS011;3556;53.500;10.176;2023-04-01T20:31:36;8.00;;;3.20;;
7029;SDS011;3556;53.500;10.176;2023-04-01T20:34:15;3.67;;;3.27;;
7029;SDS011;3556;53.500;10.176;2023-04-01T20:37:20;3.40;;;3.20;;
7029;SDS011;3556;53.500;10.176;2023-04-01T20:53:43;5.27;;;3.20;;
7029;SDS011;3556;53.500;10.176;2023-04-01T20:56:29;3.20;;;2.90;;
7029;SDS011;3556;53.500;10.176;2023-04-01T20:59:14;3.10;;;2.67;;
7029;SDS011;3556;53.500;10.176;2023-04-01T21:07:34;3.83;;;2.50;;
7029;SDS011;3556;53.500;10.176;2023-04-01T21:10:16;2.70;;;2.10;;
7029;SDS011;3556;53.500;10.176;2023-04-01T21:12:56;3.53;;;2.53;;
7029;SDS011;3556;53.500;10.176;2023-04-01T21:18:17;3.43;;;2.50;;
7029;SDS011;3556;53.500;10.176;2023-04-01T21:21:13;4.70;;;3.00;;
7029;SDS011;3556;53.500;10.176;2023-04-01T21:27:07;3.87;;;1.90;;
7029;SDS011;3556;53.500;10.176;2023-04-01T21:32:54;2.20;;;2.00;;
7029;SDS011;3556;53.500;10.176;2023-04-01T21:43:39;5.20;;;2.47;;
7029;SDS011;3556;53.500;10.176;2023-04-01T21:48:52;3.07;;;2.77;;
7029;SDS011;3556;53.500;10.176;2023-04-01T22:00:36;3.47;;;2.50;;
7029;SDS011;3556;53.500;10.176;2023-04-01T22:03:18;4.57;;;2.47;;
7029;SDS011;3556;53.500;10.176;2023-04-01T22:11:11;3.07;;;2.30;;
7029;SDS011;3556;53.500;10.176;2023-04-01T22:14:02;2.80;;;2.30;;
7029;SDS011;3556;53.500;10.176;2023-04-01T22:19:50;5.73;;;2.00;;
7029;SDS011;3556;53.500;10.176;2023-04-01T22:25:18;4.00;;;2.00;;
7029;SDS011;3556;53.500;10.176;2023-04-01T22:27:57;4.27;;;1.90;;
7029;SDS011;3556;53.500;10.176;2023-04-01T22:30:49;5.67;;;1.80;;
7029;SDS011;3556;53.500;10.176;2023-04-01T22:33:26;2.03;;;1.93;;
7029;SDS011;3556;53.500;10.176;2023-04-01T22:44:36;2.90;;;2.03;;
7029;SDS011;3556;53.500;10.176;2023-04-01T22:52:40;3.70;;;2.00;;
7029;SDS011;3556;53.500;10.176;2023-04-01T22:55:15;2.37;;;2.03;;
7029;SDS011;3556;53.500;10.176;2023-04-01T22:57:56;4.23;;;1.77;;
7029;SDS011;3556;53.500;10.176;2023-04-01T23:05:39;7.80;;;2.00;;
7029;SDS011;3556;53.500;10.176;2023-04-01T23:16:43;5.50;;;2.17;;
7029;SDS011;3556;53.500;10.176;2023-04-01T23:19:22;2.90;;;2.00;;
7029;SDS011;3556;53.500;10.176;2023-04-01T23:22:06;3.17;;;1.90;;
7029;SDS011;3556;53.500;10.176;2023-04-01T23:24:50;3.20;;;1.70;;
7029;SDS011;3556;53.500;10.176;2023-04-01T23:30:00;3.00;;;1.77;;
7029;SDS011;3556;53.500;10.176;2023-04-01T23:32:26;6.43;;;2.23;;
7029;SDS011;3556;53.500;10.176;2023-04-01T23:34:53;5.60;;;2.20;;
7029;SDS011;3556;53.500;10.176;2023-04-01T23:37:21;6.70;;;1.90;;
7029;SDS011;3556;53.500;10.176;2023-04-01T23:39:49;3.70;;;2.00;;
7029;SDS011;3556;53.500;10.176;2023-04-01T23:42:25;3.40;;;2.00;;
7029;SDS011;3556;53.500;10.176;2023-04-01T23:45:05;6.83;;;2.10;;
7029;SDS011;3556;53.500;10.176;2023-04-01T23:47:42;4.73;;;2.33;;
7029;SDS011;3556;53.500;10.176;2023-04-01T23:50:11;4.13;;;2.00;;
7029;SDS011;3556;53.500;10.176;2023-04-01T23:52:44;5.37;;;1.97;;
7029;SDS011;3556;53.500;10.176;2023-04-01T23:58:40;5.03;;;2.53;;
